createdAt,value
2022-08-22T00:00:24.166Z,16.53
2022-08-22T00:02:59.712Z,21.86
2022-08-22T00:05:48.703Z,16.45
2022-08-22T00:08:30.508Z,16.41
2022-08-22T00:11:04.452Z,16.38
2022-08-22T00:13:42.195Z,16.36
2022-08-22T00:16:20.861Z,16.33
2022-08-22T00:18:50.395Z,16.29
2022-08-22T00:21:31.393Z,16.26
2022-08-22T00:24:15.273Z,16.26
2022-08-22T00:27:02.032Z,16.20
2022-08-22T00:29:59.161Z,16.20
2022-08-22T00:32:29.449Z,16.15
2022-08-22T00:35:05.962Z,16.10
2022-08-22T00:37:38.184Z,16.07
2022-08-22T00:40:26.719Z,16.03
2022-08-22T00:43:03.764Z,16.01
2022-08-22T00:45:57.644Z,15.99
2022-08-22T00:48:54.775Z,15.95
2022-08-22T00:51:53.880Z,15.88
2022-08-22T00:54:57.791Z,15.89
2022-08-22T00:57:24.536Z,15.83
2022-08-22T01:00:20.805Z,15.82
2022-08-22T01:03:25.818Z,15.79
2022-08-22T01:05:55.242Z,15.75
2022-08-22T01:08:42.605Z,15.74
2022-08-22T01:11:35.567Z,15.71
2022-08-22T01:14:34.808Z,15.69
2022-08-22T01:17:20.583Z,15.67
2022-08-22T01:19:53.386Z,15.67
2022-08-22T01:22:42.209Z,15.66
2022-08-22T01:25:46.832Z,15.62
2022-08-22T01:28:33.609Z,15.58
2022-08-22T01:31:28.500Z,15.57
2022-08-22T01:34:20.425Z,15.54
2022-08-22T01:37:12.039Z,15.52
2022-08-22T01:40:53.493Z,15.49
2022-08-22T01:43:58.812Z,15.40
2022-08-22T01:46:35.431Z,15.39
2022-08-22T01:49:13.454Z,15.37
2022-08-22T01:51:52.167Z,15.33
2022-08-22T01:54:36.518Z,15.31
2022-08-22T01:57:07.922Z,15.31
2022-08-22T01:59:48.528Z,15.30
2022-08-22T02:02:27.905Z,15.28
2022-08-22T02:05:21.898Z,15.24
2022-08-22T02:07:56.595Z,15.24
2022-08-22T02:10:38.539Z,15.14
2022-08-22T02:13:18.119Z,15.17
2022-08-22T02:16:01.620Z,15.20
2022-08-22T02:18:42.238Z,15.17
2022-08-22T02:21:22.594Z,15.17
2022-08-22T02:24:00.353Z,15.14
2022-08-22T02:26:50.223Z,15.11
2022-08-22T02:29:31.708Z,15.08
2022-08-22T02:32:07.488Z,15.03
2022-08-22T02:34:41.310Z,15.02
2022-08-22T02:37:34.940Z,15.01
2022-08-22T02:40:15.915Z,14.97
2022-08-22T02:42:50.188Z,14.97
2022-08-22T02:45:22.985Z,14.95
2022-08-22T02:47:59.826Z,14.94
2022-08-22T02:50:59.767Z,14.89
2022-08-22T02:53:47.957Z,14.90
2022-08-22T02:56:28.484Z,14.86
2022-08-22T02:59:12.739Z,14.84
2022-08-22T03:01:43.016Z,14.83
2022-08-22T03:04:31.320Z,14.79
2022-08-22T03:07:22.354Z,14.74
2022-08-22T03:10:10.738Z,14.72
2022-08-22T03:12:57.563Z,14.73
2022-08-22T03:15:30.687Z,14.68
2022-08-22T03:18:06.357Z,14.67
2022-08-22T03:20:45.408Z,14.64
2022-08-22T03:23:24.405Z,14.61
2022-08-22T03:26:14.500Z,14.63
2022-08-22T03:28:59.471Z,14.61
2022-08-22T03:31:29.182Z,14.61
2022-08-22T03:34:21.559Z,14.58
2022-08-22T03:37:18.046Z,14.52
2022-08-22T03:39:50.989Z,14.51
2022-08-22T03:42:44.107Z,14.51
2022-08-22T03:45:38.712Z,14.48
2022-08-22T03:48:05.441Z,14.45
2022-08-22T03:50:56.985Z,14.43
2022-08-22T03:53:29.627Z,14.40
2022-08-22T03:56:27.344Z,14.40
2022-08-22T03:59:31.833Z,14.37
2022-08-22T04:01:58.573Z,14.34
2022-08-22T04:04:47.036Z,14.35
2022-08-22T04:07:50.999Z,14.32
2022-08-22T04:10:36.019Z,14.28
2022-08-22T04:13:27.992Z,14.27
2022-08-22T04:15:58.141Z,14.23
2022-08-22T04:19:08.172Z,14.18
2022-08-22T04:21:53.621Z,14.18
2022-08-22T04:24:30.577Z,14.16
2022-08-22T04:27:09.965Z,14.14
2022-08-22T04:29:56.694Z,14.12
2022-08-22T04:32:37.439Z,14.09
2022-08-22T04:35:41.787Z,14.08
2022-08-22T04:38:27.311Z,14.05
2022-08-22T04:41:18.562Z,14.06
2022-08-22T04:44:07.670Z,14.06
2022-08-22T04:46:39.738Z,14.00
2022-08-22T04:49:16.901Z,14.02
2022-08-22T04:51:57.863Z,14.01
2022-08-22T04:54:37.663Z,14.01
2022-08-22T04:57:29.278Z,13.99
2022-08-22T05:00:00.355Z,13.98
2022-08-22T05:02:28.111Z,13.99
2022-08-22T05:05:13.592Z,13.99
2022-08-22T05:07:46.424Z,14.00
2022-08-22T05:10:19.487Z,13.99
2022-08-22T05:12:50.399Z,14.00
2022-08-22T05:15:23.542Z,13.99
2022-08-22T05:17:52.940Z,14.02
2022-08-22T05:20:24.475Z,14.03
2022-08-22T05:22:56.479Z,14.07
2022-08-22T05:25:29.449Z,14.10
2022-08-22T05:28:08.475Z,14.11
2022-08-22T05:30:36.207Z,14.14
2022-08-22T05:33:27.480Z,14.17
2022-08-22T05:36:00.142Z,14.19
2022-08-22T05:38:33.765Z,14.21
2022-08-22T05:41:07.389Z,14.22
2022-08-22T05:43:37.509Z,14.23
2022-08-22T05:46:09.961Z,14.23
2022-08-22T05:48:55.670Z,14.27
2022-08-22T05:51:29.523Z,14.30
2022-08-22T05:54:09.508Z,14.34
2022-08-22T05:56:42.211Z,14.36
2022-08-22T05:59:34.487Z,14.39
2022-08-22T06:02:05.359Z,14.43
2022-08-22T06:04:40.485Z,14.47
2022-08-22T06:07:29.860Z,14.49
2022-08-22T06:10:18.018Z,14.53
2022-08-22T06:12:58.405Z,14.55
2022-08-22T06:15:38.386Z,14.60
2022-08-22T06:18:12.833Z,14.64
2022-08-22T06:21:02.942Z,14.67
2022-08-22T06:23:44.476Z,14.72
2022-08-22T06:26:20.144Z,14.75
2022-08-22T06:28:54.549Z,14.79
2022-08-22T06:31:36.197Z,14.82
2022-08-22T06:34:14.767Z,14.84
2022-08-22T06:36:46.622Z,14.91
2022-08-22T06:39:16.517Z,14.93
2022-08-22T06:41:52.287Z,14.98
2022-08-22T06:44:24.234Z,15.01
2022-08-22T06:46:54.596Z,15.06
2022-08-22T06:49:23.457Z,15.08
2022-08-22T06:51:51.111Z,15.11
2022-08-22T06:54:25.880Z,15.14
2022-08-22T06:56:55.530Z,15.20
2022-08-22T06:59:29.404Z,15.24
2022-08-22T07:02:11.362Z,15.29
2022-08-22T07:04:40.029Z,15.31
2022-08-22T07:07:06.776Z,15.36
2022-08-22T07:09:40.169Z,15.41
2022-08-22T07:12:29.578Z,15.47
2022-08-22T07:15:37.635Z,15.47
2022-08-22T07:18:09.178Z,15.51
2022-08-22T07:20:42.194Z,15.58
2022-08-22T07:23:44.998Z,15.65
2022-08-22T07:26:21.250Z,15.69
2022-08-22T07:28:58.410Z,15.74
2022-08-22T07:31:34.712Z,15.79
2022-08-22T07:34:12.959Z,15.86
2022-08-22T07:36:47.937Z,15.93
2022-08-22T07:39:33.662Z,16.00
2022-08-22T07:42:28.526Z,16.03
2022-08-22T07:45:28.051Z,16.06
2022-08-22T07:48:27.535Z,16.11
2022-08-22T07:51:15.304Z,16.16
2022-08-22T07:53:43.804Z,16.24
2022-08-22T07:56:19.693Z,16.32
2022-08-22T07:58:49.651Z,16.35
2022-08-22T08:01:22.186Z,16.43
2022-08-22T08:03:57.244Z,16.54
2022-08-22T08:06:25.545Z,16.55
2022-08-22T08:08:53.622Z,16.65
2022-08-22T08:11:23.200Z,16.75
2022-08-22T08:13:54.774Z,16.77
2022-08-22T08:16:31.078Z,16.87
2022-08-22T08:19:00.151Z,16.94
2022-08-22T08:21:53.633Z,17.06
2022-08-22T08:24:25.413Z,17.07
2022-08-22T08:27:17.786Z,17.12
2022-08-22T08:30:19.442Z,17.21
2022-08-22T08:32:57.505Z,17.24
2022-08-22T08:36:02.923Z,17.32
2022-08-22T08:38:45.113Z,17.36
2022-08-22T08:41:34.138Z,17.43
2022-08-22T08:44:23.248Z,17.50
2022-08-22T08:47:22.500Z,17.59
2022-08-22T08:49:59.363Z,17.69
2022-08-22T08:52:29.424Z,17.72
2022-08-22T08:55:16.005Z,17.81
2022-08-22T08:58:11.366Z,17.87
2022-08-22T09:00:42.234Z,17.94
2022-08-22T09:03:56.411Z,18.00
2022-08-22T09:07:02.089Z,18.03
2022-08-22T09:09:52.340Z,18.10
2022-08-22T09:12:37.594Z,18.10
2022-08-22T09:16:05.338Z,18.26
2022-08-22T09:19:15.792Z,18.26
2022-08-22T09:21:53.159Z,18.35
2022-08-22T09:24:37.763Z,18.42
2022-08-22T09:27:24.644Z,18.54
2022-08-22T09:30:06.200Z,18.68
2022-08-22T09:32:55.184Z,18.73
2022-08-22T09:35:39.017Z,18.82
2022-08-22T09:38:26.812Z,18.88
2022-08-22T09:41:00.151Z,18.88
2022-08-22T09:43:48.841Z,18.95
2022-08-22T09:46:19.523Z,18.93
2022-08-22T09:49:10.277Z,18.98
2022-08-22T09:51:51.962Z,18.97
2022-08-22T09:54:33.885Z,19.07
2022-08-22T09:57:22.910Z,19.14
2022-08-22T10:00:13.108Z,19.29
2022-08-22T10:03:06.285Z,19.33
2022-08-22T10:05:44.872Z,19.37
2022-08-22T10:08:41.001Z,19.47
2022-08-22T10:11:26.896Z,19.47
2022-08-22T10:14:22.389Z,19.53
2022-08-22T10:16:58.602Z,19.66
2022-08-22T10:19:49.740Z,19.68
2022-08-22T10:22:29.971Z,19.82
2022-08-22T10:25:22.884Z,19.89
2022-08-22T10:28:03.072Z,19.93
2022-08-22T10:30:52.073Z,20.01
2022-08-22T10:33:57.005Z,19.98
2022-08-22T10:36:35.266Z,19.87
2022-08-22T10:39:11.015Z,20.01
2022-08-22T10:42:18.580Z,20.12
2022-08-22T10:45:13.713Z,20.07
2022-08-22T10:48:04.959Z,20.13
2022-08-22T10:50:43.337Z,20.17
2022-08-22T10:53:34.804Z,20.18
2022-08-22T10:56:27.423Z,20.28
2022-08-22T10:59:08.303Z,20.41
2022-08-22T11:01:48.681Z,20.50
2022-08-22T11:04:30.878Z,20.60
2022-08-22T11:07:35.530Z,20.70
2022-08-22T11:10:09.506Z,20.74
2022-08-22T11:12:45.571Z,20.68
2022-08-22T11:15:28.344Z,20.72
2022-08-22T11:18:05.217Z,20.81
2022-08-22T11:21:01.125Z,20.98
2022-08-22T11:24:34.574Z,21.02
2022-08-22T11:27:38.435Z,21.11
2022-08-22T11:30:18.818Z,21.29
2022-08-22T11:33:13.664Z,21.35
2022-08-22T11:35:54.934Z,21.45
2022-08-22T11:38:46.032Z,21.49
2022-08-22T11:41:36.120Z,21.57
2022-08-22T11:44:11.224Z,21.59
2022-08-22T11:46:50.336Z,21.66
2022-08-22T11:49:38.342Z,21.77
2022-08-22T11:52:51.860Z,21.81
2022-08-22T11:55:38.828Z,21.86
2022-08-22T11:58:28.819Z,22.01
2022-08-22T12:01:03.860Z,21.97
2022-08-22T12:03:51.009Z,22.04
2022-08-22T12:06:40.430Z,22.17
2022-08-22T12:09:31.998Z,22.19
2022-08-22T12:12:04.932Z,22.30
2022-08-22T12:14:46.642Z,22.24
2022-08-22T12:17:50.790Z,22.43
2022-08-22T12:20:47.286Z,22.50
2022-08-22T12:23:43.641Z,22.22
2022-08-22T12:26:51.014Z,22.38
2022-08-22T12:29:45.114Z,22.54
2022-08-22T12:32:34.135Z,22.58
2022-08-22T12:35:30.099Z,22.72
2022-08-22T12:38:28.928Z,22.58
2022-08-22T12:41:34.762Z,22.76
2022-08-22T12:44:35.624Z,22.89
2022-08-22T12:47:12.450Z,22.94
2022-08-22T12:50:21.555Z,23.04
2022-08-22T12:52:51.414Z,23.11
2022-08-22T12:55:44.613Z,23.15
2022-08-22T12:58:33.890Z,23.27
2022-08-22T13:01:06.301Z,23.32
2022-08-22T13:03:45.807Z,23.32
2022-08-22T13:06:34.224Z,23.43
2022-08-22T13:09:40.089Z,23.56
2022-08-22T13:12:19.956Z,23.64
2022-08-22T13:14:51.371Z,23.61
2022-08-22T13:17:24.349Z,23.64
2022-08-22T13:20:03.840Z,23.70
2022-08-22T13:22:38.872Z,23.82
2022-08-22T13:25:15.952Z,23.79
2022-08-22T13:27:59.109Z,23.83
2022-08-22T13:30:39.900Z,23.88
2022-08-22T13:33:15.602Z,23.94
2022-08-22T13:35:51.923Z,23.86
2022-08-22T13:38:33.422Z,23.99
2022-08-22T13:41:02.259Z,23.96
2022-08-22T13:43:34.528Z,24.03
2022-08-22T13:46:06.898Z,24.15
2022-08-22T13:48:56.686Z,23.98
2022-08-22T13:51:52.614Z,24.06
2022-08-22T13:54:32.949Z,24.23
2022-08-22T13:57:25.637Z,24.21
2022-08-22T14:00:06.163Z,24.37
2022-08-22T14:02:55.471Z,24.35
2022-08-22T14:05:38.762Z,24.50
2022-08-22T14:08:21.320Z,24.55
2022-08-22T14:10:55.340Z,24.71
2022-08-22T14:13:42.732Z,24.72
2022-08-22T14:16:30.831Z,24.84
2022-08-22T14:19:09.860Z,24.75
2022-08-22T14:21:50.975Z,24.87
2022-08-22T14:24:27.160Z,24.94
2022-08-22T14:26:58.587Z,24.86
2022-08-22T14:29:31.924Z,24.90
2022-08-22T14:32:08.778Z,25.13
2022-08-22T14:34:42.641Z,25.22
2022-08-22T14:37:23.109Z,25.22
2022-08-22T14:40:04.417Z,25.21
2022-08-22T14:42:44.413Z,25.17
2022-08-22T14:45:19.462Z,25.27
2022-08-22T14:48:14.491Z,25.23
2022-08-22T14:50:59.231Z,25.39
2022-08-22T14:53:32.269Z,25.42
2022-08-22T14:55:59.005Z,25.40
2022-08-22T14:58:28.522Z,25.60
2022-08-22T15:00:57.670Z,25.57
2022-08-22T15:03:35.240Z,25.60
2022-08-22T15:06:13.673Z,25.66
2022-08-22T15:08:49.633Z,25.58
2022-08-22T15:11:22.344Z,25.67
2022-08-22T15:13:54.735Z,25.78
2022-08-22T15:16:29.512Z,25.80
2022-08-22T15:18:56.281Z,25.69
2022-08-22T15:21:27.847Z,25.79
2022-08-22T15:23:59.780Z,25.75
2022-08-22T15:26:52.249Z,25.81
2022-08-22T15:29:26.650Z,25.87
2022-08-22T15:32:01.280Z,25.93
2022-08-22T15:34:42.113Z,25.60
2022-08-22T15:37:20.855Z,25.63
2022-08-22T15:40:11.953Z,25.57
2022-08-22T15:42:50.233Z,25.52
2022-08-22T15:45:36.675Z,25.51
2022-08-22T15:48:09.126Z,25.62
2022-08-22T15:50:41.914Z,25.60
2022-08-22T15:53:08.804Z,25.58
2022-08-22T15:55:37.056Z,25.69
2022-08-22T15:58:09.539Z,25.43
2022-08-22T16:01:02.317Z,25.57
2022-08-22T16:03:33.245Z,25.76
2022-08-22T16:06:07.526Z,25.83
2022-08-22T16:08:37.232Z,25.80
2022-08-22T16:11:03.955Z,25.86
2022-08-22T16:13:30.720Z,25.88
2022-08-22T16:16:18.567Z,25.77
2022-08-22T16:18:48.213Z,25.61
2022-08-22T16:21:14.914Z,25.37
2022-08-22T16:23:56.891Z,25.68
2022-08-22T16:26:24.942Z,25.60
2022-08-22T16:29:00.784Z,25.60
2022-08-22T16:31:45.128Z,25.49
2022-08-22T16:34:18.028Z,25.63
2022-08-22T16:37:06.036Z,25.31
2022-08-22T16:39:36.373Z,25.40
2022-08-22T16:42:24.431Z,25.24
2022-08-22T16:45:05.171Z,25.32
2022-08-22T16:47:42.012Z,25.44
2022-08-22T16:50:22.551Z,25.35
2022-08-22T16:53:07.887Z,25.26
2022-08-22T16:56:06.739Z,25.32
2022-08-22T16:59:09.879Z,25.14
2022-08-22T17:02:07.354Z,25.12
2022-08-22T17:04:48.545Z,24.88
2022-08-22T17:07:40.343Z,24.88
2022-08-22T17:10:20.045Z,24.88
2022-08-22T17:13:26.278Z,24.82
2022-08-22T17:16:07.478Z,24.69
2022-08-22T17:18:43.834Z,24.62
2022-08-22T17:21:25.448Z,24.56
2022-08-22T17:24:32.038Z,24.35
2022-08-22T17:27:18.271Z,24.47
2022-08-22T17:29:57.467Z,24.40
2022-08-22T17:32:33.794Z,24.47
2022-08-22T17:35:16.778Z,24.41
2022-08-22T17:38:18.622Z,24.33
2022-08-22T17:41:19.672Z,24.25
2022-08-22T17:44:18.427Z,24.20
2022-08-22T17:46:54.305Z,24.16
2022-08-22T17:49:45.159Z,24.12
2022-08-22T17:52:33.895Z,23.91
2022-08-22T17:55:57.367Z,23.95
2022-08-22T17:58:44.314Z,23.79
2022-08-22T18:01:16.092Z,23.60
2022-08-22T18:03:53.448Z,23.64
2022-08-22T18:06:29.426Z,23.62
2022-08-22T18:09:14.980Z,23.60
2022-08-22T18:11:50.210Z,23.50
2022-08-22T18:14:49.333Z,23.42
2022-08-22T18:17:25.904Z,23.29
2022-08-22T18:20:16.259Z,23.25
2022-08-22T18:22:55.172Z,23.26
2022-08-22T18:25:22.485Z,23.02
2022-08-22T18:27:51.719Z,23.06
2022-08-22T18:30:22.198Z,22.77
2022-08-22T18:33:09.989Z,22.79
2022-08-22T18:36:07.922Z,22.65
2022-08-22T18:38:50.314Z,22.35
2022-08-22T18:41:24.303Z,22.37
2022-08-22T18:43:53.603Z,22.32
2022-08-22T18:46:28.937Z,22.39
2022-08-22T18:49:14.650Z,22.37
2022-08-22T18:51:42.213Z,22.21
2022-08-22T18:54:09.039Z,22.18
2022-08-22T18:56:58.434Z,22.12
2022-08-22T18:59:47.001Z,22.06
2022-08-22T19:02:20.707Z,21.84
2022-08-22T19:05:02.970Z,21.66
2022-08-22T19:07:48.523Z,21.66
2022-08-22T19:10:24.376Z,21.62
2022-08-22T19:13:09.568Z,21.60
2022-08-22T19:15:40.033Z,21.53
2022-08-22T19:18:28.412Z,21.23
2022-08-22T19:21:32.195Z,20.95
2022-08-22T19:24:05.154Z,20.97
2022-08-22T19:26:40.914Z,20.96
2022-08-22T19:29:17.363Z,20.61
2022-08-22T19:31:49.063Z,20.84
2022-08-22T19:34:29.469Z,20.58
2022-08-22T19:37:32.049Z,20.46
2022-08-22T19:40:26.627Z,20.20
2022-08-22T19:42:54.637Z,20.34
2022-08-22T19:45:29.183Z,20.44
2022-08-22T19:48:00.692Z,20.43
2022-08-22T19:50:34.943Z,20.12
2022-08-22T19:53:14.354Z,20.35
2022-08-22T19:55:58.647Z,20.41
2022-08-22T19:58:47.021Z,20.29
2022-08-22T20:01:33.963Z,20.31
2022-08-22T20:04:28.028Z,19.98
2022-08-22T20:07:05.416Z,20.17
2022-08-22T20:09:54.042Z,19.89
2022-08-22T20:12:35.392Z,20.07
2022-08-22T20:15:23.322Z,20.06
2022-08-22T20:20:57.893Z,20.02
2022-08-22T20:23:30.970Z,20.04
2022-08-22T20:25:58.653Z,19.99
2022-08-22T20:28:37.133Z,19.98
2022-08-22T20:31:10.482Z,19.92
2022-08-22T20:33:41.304Z,19.85
2022-08-22T20:36:28.006Z,19.82
2022-08-22T20:39:00.171Z,19.73
2022-08-22T20:41:35.818Z,19.67
2022-08-22T20:44:12.613Z,19.64
2022-08-22T20:46:53.623Z,19.60
2022-08-22T20:49:27.006Z,19.56
2022-08-22T20:52:00.493Z,19.49
2022-08-22T20:54:29.560Z,19.41
2022-08-22T20:57:02.674Z,19.38
2022-08-22T20:59:36.089Z,19.34
2022-08-22T21:02:29.006Z,19.29
2022-08-22T21:05:18.481Z,19.23
2022-08-22T21:07:47.829Z,19.17
2022-08-22T21:10:41.552Z,19.15
2022-08-22T21:13:22.067Z,19.04
2022-08-22T21:15:52.229Z,19.01
2022-08-22T21:18:40.812Z,18.94
2022-08-22T21:21:17.403Z,18.88
2022-08-22T21:23:52.534Z,18.80
2022-08-22T21:26:29.824Z,18.76
2022-08-22T21:29:03.009Z,18.70
2022-08-22T21:32:08.388Z,18.63
2022-08-22T21:34:42.913Z,18.54
2022-08-22T21:37:14.960Z,18.50
2022-08-22T21:39:50.801Z,18.46
2022-08-22T21:42:27.124Z,18.38
2022-08-22T21:45:10.064Z,18.33
2022-08-22T21:47:42.279Z,18.24
2022-08-22T21:50:21.193Z,18.18
2022-08-22T21:52:54.048Z,18.17
2022-08-22T21:55:28.492Z,18.10
2022-08-22T21:58:36.502Z,18.07
2022-08-22T22:01:22.585Z,18.03
2022-08-22T22:03:52.261Z,17.97
2022-08-22T22:06:19.633Z,17.94
2022-08-22T22:08:46.591Z,17.88
2022-08-22T22:11:15.456Z,17.85
2022-08-22T22:13:42.519Z,17.78
2022-08-22T22:16:12.286Z,17.75
2022-08-22T22:18:39.776Z,17.74
2022-08-22T22:21:08.586Z,17.66
2022-08-22T22:23:35.478Z,17.59
2022-08-22T22:26:04.902Z,17.54
2022-08-22T22:28:38.994Z,17.47
2022-08-22T22:31:06.921Z,17.40
2022-08-22T22:33:38.243Z,17.39
2022-08-22T22:36:21.629Z,17.34
2022-08-22T22:38:51.660Z,17.27
2022-08-22T22:41:20.343Z,17.24
2022-08-22T22:43:47.261Z,17.20
2022-08-22T22:46:14.137Z,17.16
2022-08-22T22:48:40.932Z,17.11
2022-08-22T22:51:12.455Z,17.09
2022-08-22T22:53:43.054Z,17.05
2022-08-22T22:56:14.384Z,17.01
2022-08-22T22:58:43.410Z,16.94
2022-08-22T23:01:14.148Z,16.91
2022-08-22T23:03:41.167Z,16.87
2022-08-22T23:06:16.873Z,16.80
2022-08-22T23:08:43.631Z,16.74
2022-08-22T23:11:12.855Z,16.71
2022-08-22T23:13:39.975Z,16.68
2022-08-22T23:16:12.946Z,16.62
2022-08-22T23:18:39.772Z,16.59
2022-08-22T23:21:34.173Z,16.56
2022-08-22T23:24:05.431Z,16.46
2022-08-22T23:26:32.779Z,16.43
2022-08-22T23:29:00.170Z,16.36
2022-08-22T23:31:31.191Z,16.37
2022-08-22T23:34:02.668Z,16.31
2022-08-22T23:36:29.815Z,16.29
2022-08-22T23:38:57.437Z,16.26
2022-08-22T23:41:24.345Z,16.22
2022-08-22T23:43:54.648Z,16.16
2022-08-22T23:46:24.735Z,16.12
2022-08-22T23:48:52.208Z,16.05
2022-08-22T23:51:23.047Z,15.96
2022-08-22T23:53:50.531Z,15.94
2022-08-22T23:56:30.615Z,15.91
2022-08-22T23:58:59.635Z,15.85
